Terminal Aerodrome Forecast
Issued by NWS

Home | Current Version | Previous Version | Text Only | Print | Product List | Glossary On
Versions: 1 2 3 4 5 6 7 8 9 10 11 12 13 14
519
FTUS42 KTBW 282328
TAFPGD
TAF
KPGD 282328Z 2900/2924 29008KT P6SM FEW040 SCT250
     FM290200 VRB03KT P6SM FEW250
     FM291500 21007KT P6SM FEW040 SCT250
     FM292000 28010KT P6SM SCT050 SCT250=

USA.gov is the U.S. government's official web portal to all federal, state and local government web resources and services.